USPP 271930Z 24001MPS 9999 BKN049 M04/M05 Q1025 R21/090060 NOSIG RMK QFE758
QNH:(hPa/inHg/mmHg)1025 / 30.27 / 769
QFE:(hPa/inHg/mmHg)1010 / 29.83 / 758
Temperature-4
Dew Point-5
Visibility> 10000
Weather
Cloud CoverBKN (4900);
Transition Height1200 m./4400 ft.
Transition LevelFL50
SQUAWK